createdAt,value
2022-09-03T00:00:34.996Z,14.62
2022-09-03T00:03:31.644Z,14.59
2022-09-03T00:06:16.833Z,14.53
2022-09-03T00:08:50.901Z,14.46
2022-09-03T00:11:26.014Z,14.41
2022-09-03T00:14:04.608Z,14.34
2022-09-03T00:16:54.733Z,14.34
2022-09-03T00:19:27.075Z,14.24
2022-09-03T00:21:59.576Z,14.24
2022-09-03T00:24:34.494Z,14.24
2022-09-03T00:27:06.437Z,14.18
2022-09-03T00:29:58.277Z,14.12
2022-09-03T00:32:35.113Z,14.00
2022-09-03T00:35:06.505Z,13.91
2022-09-03T00:37:37.986Z,13.95
2022-09-03T00:40:10.886Z,13.98
2022-09-03T00:42:45.015Z,14.00
2022-09-03T00:45:39.134Z,13.99
2022-09-03T00:48:27.937Z,13.99
2022-09-03T00:51:12.706Z,14.00
2022-09-03T00:54:10.766Z,13.99
2022-09-03T00:56:49.885Z,13.99
2022-09-03T00:59:39.132Z,14.09
2022-09-03T01:02:34.146Z,14.19
2022-09-03T01:05:23.014Z,14.25
2022-09-03T01:08:14.833Z,14.24
2022-09-03T01:11:03.521Z,14.21
2022-09-03T01:13:48.711Z,14.20
2022-09-03T01:16:35.490Z,14.26
2022-09-03T01:19:28.873Z,14.38
2022-09-03T01:22:10.785Z,14.52
2022-09-03T01:25:15.344Z,14.42
2022-09-03T01:27:59.653Z,14.41
2022-09-03T01:30:26.821Z,14.41
2022-09-03T01:33:35.600Z,14.39
2022-09-03T01:36:18.392Z,14.41
2022-09-03T01:38:56.449Z,14.42
2022-09-03T01:42:12.666Z,14.40
2022-09-03T01:45:00.993Z,14.41
2022-09-03T01:47:55.347Z,14.40
2022-09-03T01:50:34.037Z,14.42
2022-09-03T01:53:18.391Z,14.46
2022-09-03T01:56:13.331Z,14.42
2022-09-03T01:58:47.194Z,14.42
2022-09-03T02:01:21.052Z,14.42
2022-09-03T02:03:48.793Z,14.45
2022-09-03T02:06:15.784Z,14.43
2022-09-03T02:08:42.554Z,14.43
2022-09-03T02:11:10.446Z,14.38
2022-09-03T02:13:44.544Z,14.35
2022-09-03T02:16:17.481Z,14.24
2022-09-03T02:18:51.721Z,14.13
2022-09-03T02:21:21.324Z,14.11
2022-09-03T02:23:49.592Z,14.09
2022-09-03T02:26:21.307Z,14.09
2022-09-03T02:28:48.818Z,14.01
2022-09-03T02:31:15.875Z,13.96
2022-09-03T02:33:46.185Z,13.87
2022-09-03T02:36:18.219Z,13.81
2022-09-03T02:38:46.413Z,13.76
2022-09-03T02:41:15.479Z,13.67
2022-09-03T02:43:51.613Z,13.62
2022-09-03T02:46:22.896Z,13.61
2022-09-03T02:48:49.841Z,13.64
2022-09-03T02:51:16.637Z,13.72
2022-09-03T02:53:44.568Z,13.75
2022-09-03T02:56:12.274Z,13.85
2022-09-03T02:58:39.123Z,13.91
2022-09-03T03:01:06.142Z,13.92
2022-09-03T03:03:33.467Z,13.93
2022-09-03T03:06:02.830Z,13.91
2022-09-03T03:08:30.398Z,13.90
2022-09-03T03:10:58.923Z,13.96
2022-09-03T03:13:27.224Z,13.95
2022-09-03T03:16:03.201Z,13.88
2022-09-03T03:18:30.580Z,13.82
2022-09-03T03:20:57.577Z,13.70
2022-09-03T03:23:24.321Z,13.69
2022-09-03T03:25:51.133Z,13.74
2022-09-03T03:28:20.669Z,13.73
2022-09-03T03:30:48.627Z,13.68
2022-09-03T03:33:15.852Z,13.68
2022-09-03T03:35:42.830Z,13.67
2022-09-03T03:38:09.909Z,13.76
2022-09-03T03:40:38.686Z,13.75
2022-09-03T03:43:05.443Z,13.67
2022-09-03T03:45:32.378Z,13.73
2022-09-03T03:47:59.534Z,13.78
2022-09-03T03:50:26.708Z,13.80
2022-09-03T03:52:53.463Z,13.75
2022-09-03T03:55:20.300Z,13.74
2022-09-03T03:57:47.069Z,13.78
2022-09-03T04:00:14.905Z,13.82
2022-09-03T04:02:42.860Z,13.82
2022-09-03T04:05:10.223Z,13.84
2022-09-03T04:07:38.395Z,13.83
2022-09-03T04:10:05.946Z,13.86
2022-09-03T04:12:33.278Z,13.83
2022-09-03T04:15:00.062Z,13.78
2022-09-03T04:17:28.303Z,13.75
2022-09-03T04:19:55.060Z,13.71
2022-09-03T04:22:21.913Z,13.69
2022-09-03T04:24:48.706Z,13.63
2022-09-03T04:27:15.537Z,13.69
2022-09-03T04:29:42.314Z,13.64
2022-09-03T04:32:27.630Z,13.70
2022-09-03T04:34:54.401Z,13.63
2022-09-03T04:37:21.434Z,13.66
2022-09-03T04:39:48.342Z,13.72
2022-09-03T04:42:15.170Z,13.72
2022-09-03T04:44:41.960Z,13.72
2022-09-03T04:47:08.854Z,13.70
2022-09-03T04:49:35.655Z,13.72
2022-09-03T04:52:03.468Z,13.77
2022-09-03T04:54:30.258Z,13.79
2022-09-03T04:56:57.187Z,13.78
2022-09-03T04:59:24.039Z,13.78
2022-09-03T05:01:52.726Z,13.74
2022-09-03T05:04:19.872Z,13.73
2022-09-03T05:06:46.816Z,13.77
2022-09-03T05:09:13.764Z,13.82
2022-09-03T05:11:40.656Z,13.86
2022-09-03T05:14:11.711Z,13.87
2022-09-03T05:16:39.315Z,13.81
2022-09-03T05:19:08.059Z,13.80
2022-09-03T05:21:36.178Z,13.80
2022-09-03T05:24:04.122Z,13.78
2022-09-03T05:26:36.561Z,13.73
2022-09-03T05:29:07.822Z,13.73
2022-09-03T05:31:38.060Z,13.67
2022-09-03T05:34:06.276Z,13.69
2022-09-03T05:36:35.603Z,13.70
2022-09-03T05:39:03.465Z,13.75
2022-09-03T05:41:30.587Z,13.73
2022-09-03T05:43:59.772Z,13.75
2022-09-03T05:46:32.185Z,13.85
2022-09-03T05:49:04.923Z,13.89
2022-09-03T05:51:32.956Z,14.04
2022-09-03T05:54:00.164Z,14.18
2022-09-03T05:56:30.269Z,14.38
2022-09-03T05:59:05.487Z,14.42
2022-09-03T06:01:41.584Z,14.52
2022-09-03T06:04:15.602Z,14.49
2022-09-03T06:06:45.023Z,14.60
2022-09-03T06:09:20.552Z,14.88
2022-09-03T06:11:50.069Z,15.17
2022-09-03T06:14:17.598Z,15.40
2022-09-03T06:16:46.455Z,15.48
2022-09-03T06:19:14.272Z,15.58
2022-09-03T06:21:43.592Z,15.72
2022-09-03T06:24:14.217Z,15.89
2022-09-03T06:26:42.827Z,15.92
2022-09-03T06:29:10.574Z,15.97
2022-09-03T06:31:37.765Z,16.20
2022-09-03T06:34:05.997Z,16.21
2022-09-03T06:36:33.007Z,16.35
2022-09-03T06:39:00.014Z,16.53
2022-09-03T06:41:32.371Z,16.68
2022-09-03T06:44:03.436Z,16.85
2022-09-03T06:46:38.834Z,16.76
2022-09-03T06:49:06.055Z,16.80
2022-09-03T06:51:33.577Z,17.13
2022-09-03T06:54:07.977Z,17.37
2022-09-03T06:56:40.197Z,17.34
2022-09-03T06:59:13.067Z,17.55
2022-09-03T07:01:43.930Z,17.53
2022-09-03T07:04:12.959Z,17.74
2022-09-03T07:06:42.370Z,17.82
2022-09-03T07:09:11.135Z,17.93
2022-09-03T07:11:40.569Z,18.02
2022-09-03T07:14:08.097Z,18.35
2022-09-03T07:16:36.951Z,18.38
2022-09-03T07:19:07.412Z,18.57
2022-09-03T07:21:36.884Z,19.03
2022-09-03T07:24:05.520Z,19.21
2022-09-03T07:26:38.549Z,19.36
2022-09-03T07:29:07.878Z,19.36
2022-09-03T07:31:39.806Z,19.07
2022-09-03T07:34:12.674Z,19.60
2022-09-03T07:36:41.849Z,19.55
2022-09-03T07:39:09.642Z,19.74
2022-09-03T07:41:36.640Z,19.81
2022-09-03T07:44:07.232Z,20.14
2022-09-03T07:46:37.147Z,20.01
2022-09-03T07:49:05.385Z,19.81
2022-09-03T07:51:35.766Z,20.06
2022-09-03T07:54:08.276Z,20.28
2022-09-03T07:56:35.980Z,20.25
2022-09-03T07:59:03.411Z,20.38
2022-09-03T08:01:32.791Z,20.37
2022-09-03T08:04:00.884Z,20.34
2022-09-03T08:06:29.666Z,20.68
2022-09-03T08:09:04.181Z,20.57
2022-09-03T08:11:39.702Z,21.21
2022-09-03T08:14:09.061Z,21.43
2022-09-03T08:16:38.558Z,21.68
2022-09-03T08:19:05.872Z,21.86
2022-09-03T08:21:32.842Z,22.09
2022-09-03T08:24:03.021Z,22.19
2022-09-03T08:26:32.126Z,22.29
2022-09-03T08:28:59.518Z,22.21
2022-09-03T08:31:28.289Z,21.78
2022-09-03T08:33:57.833Z,22.07
2022-09-03T08:36:30.334Z,21.95
2022-09-03T08:38:59.409Z,21.45
2022-09-03T08:42:15.882Z,21.67
2022-09-03T08:44:56.783Z,21.36
2022-09-03T08:47:41.767Z,22.22
2022-09-03T08:50:28.341Z,21.81
2022-09-03T08:53:02.136Z,21.89
2022-09-03T08:55:34.209Z,21.64
2022-09-03T08:58:09.756Z,22.20
2022-09-03T09:00:46.568Z,21.97
2022-09-03T09:03:25.351Z,22.56
2022-09-03T09:05:57.986Z,22.65
2022-09-03T09:08:35.231Z,22.49
2022-09-03T09:11:06.473Z,21.85
2022-09-03T09:13:58.076Z,22.46
2022-09-03T09:16:39.163Z,22.20
2022-09-03T09:19:09.868Z,22.75
2022-09-03T09:21:55.030Z,22.56
2022-09-03T09:24:37.229Z,22.55
2022-09-03T09:27:06.530Z,22.00
2022-09-03T09:29:36.507Z,22.22
2022-09-03T09:32:07.121Z,22.60
2022-09-03T09:34:36.357Z,22.24
2022-09-03T09:37:11.406Z,22.99
2022-09-03T09:39:38.227Z,23.81
2022-09-03T09:42:11.280Z,24.28
2022-09-03T09:44:40.068Z,23.82
2022-09-03T09:47:34.730Z,23.64
2022-09-03T09:50:02.981Z,24.61
2022-09-03T09:52:31.530Z,24.34
2022-09-03T09:55:16.163Z,24.58
2022-09-03T09:57:42.898Z,24.88
2022-09-03T10:00:16.748Z,25.53
2022-09-03T10:02:54.681Z,25.78
2022-09-03T10:05:23.758Z,25.45
2022-09-03T10:08:01.043Z,26.36
2022-09-03T10:10:31.921Z,26.47
2022-09-03T10:13:12.578Z,26.65
2022-09-03T10:16:03.597Z,25.76
2022-09-03T10:18:46.216Z,25.61
2022-09-03T10:21:24.996Z,25.83
2022-09-03T10:24:07.309Z,24.97
2022-09-03T10:26:36.800Z,25.60
2022-09-03T10:29:07.094Z,25.69
2022-09-03T10:31:54.137Z,26.25
2022-09-03T10:34:24.600Z,26.77
2022-09-03T10:37:23.577Z,26.92
2022-09-03T10:39:56.407Z,26.51
2022-09-03T10:42:53.676Z,25.94
2022-09-03T10:45:55.295Z,27.26
2022-09-03T10:48:47.021Z,27.54
2022-09-03T10:51:22.396Z,26.93
2022-09-03T10:54:07.585Z,28.10
2022-09-03T10:57:19.097Z,29.07
2022-09-03T11:00:11.265Z,28.62
2022-09-03T11:02:47.500Z,27.26
2022-09-03T11:05:20.839Z,27.58
2022-09-03T11:08:07.850Z,28.62
2022-09-03T11:10:41.038Z,27.37
2022-09-03T11:13:17.744Z,27.90
2022-09-03T11:16:01.195Z,29.21
2022-09-03T11:18:35.711Z,28.57
2022-09-03T11:21:11.848Z,29.24
2022-09-03T11:23:43.631Z,28.34
2022-09-03T11:26:18.669Z,29.14
2022-09-03T11:29:13.081Z,28.69
2022-09-03T11:31:57.909Z,28.66
2022-09-03T11:34:32.630Z,28.07
2022-09-03T11:37:16.572Z,29.05
2022-09-03T11:39:43.774Z,28.92
2022-09-03T11:42:13.231Z,28.65
2022-09-03T11:44:51.638Z,27.93
2022-09-03T11:47:23.005Z,28.75
2022-09-03T11:49:52.820Z,27.78
2022-09-03T11:52:32.253Z,28.87
2022-09-03T11:54:59.310Z,28.96
2022-09-03T11:57:31.418Z,29.14
2022-09-03T12:00:14.308Z,28.32
2022-09-03T12:02:46.923Z,27.28
2022-09-03T12:05:51.666Z,28.30
2022-09-03T12:08:53.920Z,26.90
2022-09-03T12:11:30.483Z,28.84
2022-09-03T12:14:25.386Z,27.89
2022-09-03T12:17:11.896Z,28.92
2022-09-03T12:19:55.236Z,28.14
2022-09-03T12:22:25.977Z,28.37
2022-09-03T12:24:52.852Z,28.20
2022-09-03T12:27:24.201Z,29.53
2022-09-03T12:30:02.626Z,29.00
2022-09-03T12:32:40.277Z,29.16
2022-09-03T12:38:11.230Z,28.97
2022-09-03T12:43:49.914Z,28.74
2022-09-03T12:46:18.037Z,29.07
2022-09-03T12:51:48.980Z,28.07
2022-09-03T12:54:17.696Z,28.45
2022-09-03T12:56:50.969Z,28.87
2022-09-03T12:59:20.156Z,27.92
2022-09-03T13:01:52.188Z,28.61
2022-09-03T13:04:26.798Z,28.09
2022-09-03T13:07:05.192Z,29.42
2022-09-03T13:09:37.706Z,27.09
2022-09-03T13:12:05.878Z,26.60
2022-09-03T13:14:48.401Z,27.92
2022-09-03T13:17:56.433Z,29.48
2022-09-03T13:20:29.348Z,29.77
2022-09-03T13:23:11.926Z,28.53
2022-09-03T13:25:55.375Z,28.57
2022-09-03T13:28:31.870Z,28.27
2022-09-03T13:31:09.424Z,27.06
2022-09-03T13:33:45.603Z,28.00
2022-09-03T13:36:19.127Z,27.71
2022-09-03T13:38:56.771Z,29.41
2022-09-03T13:41:46.581Z,30.52
2022-09-03T13:44:40.734Z,29.44
2022-09-03T13:47:36.124Z,29.14
2022-09-03T13:50:22.438Z,27.80
2022-09-03T13:53:18.958Z,28.29
2022-09-03T13:55:55.442Z,28.85
2022-09-03T13:58:30.665Z,28.53
2022-09-03T14:00:58.397Z,28.73
2022-09-03T14:03:48.749Z,28.63
2022-09-03T14:06:43.073Z,29.17
2022-09-03T14:09:54.540Z,31.03
2022-09-03T14:12:36.183Z,29.33
2022-09-03T14:15:15.738Z,29.95
2022-09-03T14:18:13.520Z,29.09
2022-09-03T14:21:03.989Z,29.75
2022-09-03T14:23:46.662Z,28.88
2022-09-03T14:26:38.735Z,29.60
2022-09-03T14:29:12.680Z,29.51
2022-09-03T14:32:05.439Z,28.93
2022-09-03T14:34:35.527Z,28.57
2022-09-03T14:37:18.419Z,27.27
2022-09-03T14:40:19.230Z,28.01
2022-09-03T14:43:20.270Z,28.25
2022-09-03T14:46:06.351Z,27.82
2022-09-03T14:49:00.545Z,28.16
2022-09-03T14:51:55.069Z,28.78
2022-09-03T14:54:35.863Z,30.16
2022-09-03T14:57:24.519Z,28.91
2022-09-03T15:00:19.949Z,28.04
2022-09-03T15:02:47.015Z,28.77
2022-09-03T15:05:51.753Z,28.38
2022-09-03T15:08:43.124Z,28.24
2022-09-03T15:11:20.024Z,27.46
2022-09-03T15:14:03.277Z,27.27
2022-09-03T15:16:49.754Z,27.68
2022-09-03T15:19:28.695Z,29.14
2022-09-03T15:22:13.979Z,29.00
2022-09-03T15:25:02.903Z,28.63
2022-09-03T15:27:51.091Z,27.72
2022-09-03T15:30:20.178Z,27.12
2022-09-03T15:32:55.750Z,27.31
2022-09-03T15:35:41.422Z,26.88
2022-09-03T15:38:25.038Z,26.32
2022-09-03T15:40:57.119Z,26.25
2022-09-03T15:43:30.397Z,26.39
2022-09-03T15:46:10.742Z,25.41
2022-09-03T15:48:44.652Z,24.61
2022-09-03T15:51:27.148Z,24.42
2022-09-03T15:54:25.297Z,23.93
2022-09-03T15:57:24.428Z,23.76
2022-09-03T16:00:21.215Z,23.67
2022-09-03T16:02:52.402Z,23.62
2022-09-03T16:05:39.423Z,23.41
2022-09-03T16:08:48.263Z,23.35
2022-09-03T16:11:35.082Z,23.38
2022-09-03T16:14:13.409Z,23.36
2022-09-03T16:17:02.733Z,23.32
2022-09-03T16:19:44.876Z,23.28
2022-09-03T16:22:26.924Z,23.10
2022-09-03T16:25:44.307Z,23.49
2022-09-03T16:28:16.726Z,23.52
2022-09-03T16:30:49.582Z,23.58
2022-09-03T16:33:27.834Z,23.42
2022-09-03T16:36:14.848Z,23.39
2022-09-03T16:39:13.685Z,23.38
2022-09-03T16:41:58.933Z,23.05
2022-09-03T16:45:30.525Z,22.88
2022-09-03T16:48:18.610Z,22.90
2022-09-03T16:50:54.132Z,22.96
2022-09-03T16:53:42.452Z,22.87
2022-09-03T16:56:21.431Z,22.78
2022-09-03T16:58:57.665Z,22.73
2022-09-03T17:01:55.642Z,22.71
2022-09-03T17:04:22.458Z,22.62
2022-09-03T17:06:52.153Z,22.63
2022-09-03T17:09:46.894Z,22.53
2022-09-03T17:12:19.433Z,22.42
2022-09-03T17:14:53.887Z,22.28
2022-09-03T17:17:29.921Z,22.17
2022-09-03T17:20:21.576Z,22.11
2022-09-03T17:23:05.276Z,22.10
2022-09-03T17:25:37.209Z,22.05
2022-09-03T17:28:35.396Z,22.10
2022-09-03T17:31:24.785Z,21.96
2022-09-03T17:34:06.947Z,21.81
2022-09-03T17:36:38.454Z,21.59
2022-09-03T17:39:23.808Z,21.52
2022-09-03T17:41:53.746Z,21.27
2022-09-03T17:44:30.790Z,21.21
2022-09-03T17:47:35.924Z,21.15
2022-09-03T17:50:11.450Z,21.04
2022-09-03T17:52:48.562Z,20.97
2022-09-03T17:55:33.948Z,20.90
2022-09-03T17:58:14.606Z,20.82
2022-09-03T18:00:56.857Z,20.81
2022-09-03T18:03:41.575Z,20.74
2022-09-03T18:06:19.455Z,20.66
2022-09-03T18:08:51.543Z,20.54
2022-09-03T18:11:28.772Z,20.54
2022-09-03T18:14:22.711Z,20.54
2022-09-03T18:17:03.207Z,20.42
2022-09-03T18:20:24.240Z,20.41
2022-09-03T18:23:38.842Z,20.26
2022-09-03T18:26:32.279Z,20.09
2022-09-03T18:29:35.042Z,19.95
2022-09-03T18:32:20.473Z,19.75
2022-09-03T18:35:06.402Z,19.71
2022-09-03T18:37:51.700Z,19.56
2022-09-03T18:40:44.852Z,19.47
2022-09-03T18:43:42.388Z,19.51
2022-09-03T18:48:00.996Z,19.37
2022-09-03T18:50:17.373Z,19.39
2022-09-03T18:53:20.619Z,19.40
2022-09-03T18:56:15.560Z,19.35
2022-09-03T18:59:10.130Z,19.21
2022-09-03T19:01:58.602Z,19.22
2022-09-03T19:05:04.130Z,19.10
2022-09-03T19:08:00.709Z,19.07
2022-09-03T19:11:00.747Z,18.96
2022-09-03T19:13:51.854Z,18.84
2022-09-03T19:16:44.381Z,18.80
2022-09-03T19:20:03.510Z,18.69
2022-09-03T19:22:54.401Z,18.57
2022-09-03T19:25:40.819Z,18.40
2022-09-03T19:28:50.010Z,18.36
2022-09-03T19:32:13.121Z,18.32
2022-09-03T19:35:13.541Z,18.36
2022-09-03T19:38:37.483Z,18.23
2022-09-03T19:41:31.948Z,18.25
2022-09-03T19:44:23.479Z,18.23
2022-09-03T19:47:16.925Z,18.18
2022-09-03T19:50:21.211Z,18.07
2022-09-03T19:53:06.947Z,18.08
2022-09-03T19:56:05.185Z,18.04
2022-09-03T19:58:56.525Z,18.06
2022-09-03T20:01:48.136Z,17.94
2022-09-03T20:04:34.915Z,17.96
2022-09-03T20:07:23.405Z,18.03
2022-09-03T20:10:12.274Z,18.01
2022-09-03T20:12:43.404Z,17.99
2022-09-03T20:15:10.677Z,17.96
2022-09-03T20:17:56.149Z,17.97
2022-09-03T20:20:44.143Z,17.91
2022-09-03T20:23:18.820Z,17.89
2022-09-03T20:26:27.467Z,17.90
2022-09-03T20:29:12.432Z,17.82
2022-09-03T20:31:55.572Z,17.76
2022-09-03T20:34:25.340Z,17.75
2022-09-03T20:37:17.173Z,17.82
2022-09-03T20:40:08.232Z,17.80
2022-09-03T20:42:50.604Z,17.79
2022-09-03T20:45:21.631Z,17.83
2022-09-03T20:48:11.142Z,17.85
2022-09-03T20:50:43.243Z,17.76
2022-09-03T20:53:38.236Z,17.75
2022-09-03T20:56:28.321Z,17.77
2022-09-03T20:59:09.935Z,17.79
2022-09-03T21:01:50.934Z,17.75
2022-09-03T21:04:26.422Z,17.69
2022-09-03T21:07:22.815Z,17.68
2022-09-03T21:10:05.434Z,17.67
2022-09-03T21:12:54.292Z,17.70
2022-09-03T21:15:24.297Z,17.65
2022-09-03T21:18:28.772Z,17.63
2022-09-03T21:21:17.348Z,17.47
2022-09-03T21:23:48.493Z,17.41
2022-09-03T21:26:29.258Z,17.30
2022-09-03T21:29:06.833Z,17.27
2022-09-03T21:31:48.971Z,17.25
2022-09-03T21:34:20.817Z,17.18
2022-09-03T21:36:49.286Z,17.09
2022-09-03T21:39:34.787Z,17.02
2022-09-03T21:42:13.908Z,16.91
2022-09-03T21:44:40.600Z,16.89
2022-09-03T21:47:18.898Z,16.87
2022-09-03T21:50:11.935Z,16.87
2022-09-03T21:52:44.713Z,16.86
2022-09-03T21:55:24.832Z,16.94
2022-09-03T21:58:10.369Z,17.02
2022-09-03T22:00:37.814Z,16.98
2022-09-03T22:03:07.917Z,17.08
2022-09-03T22:05:50.877Z,17.03
2022-09-03T22:08:25.575Z,16.92
2022-09-03T22:11:10.765Z,16.83
2022-09-03T22:14:01.923Z,16.74
2022-09-03T22:16:38.397Z,16.71
2022-09-03T22:19:07.852Z,16.59
2022-09-03T22:21:58.392Z,16.54
2022-09-03T22:24:43.708Z,16.44
2022-09-03T22:27:38.652Z,16.35
2022-09-03T22:30:20.231Z,16.23
2022-09-03T22:33:11.936Z,16.17
2022-09-03T22:35:49.809Z,16.13
2022-09-03T22:38:50.411Z,16.01
2022-09-03T22:41:48.257Z,15.99
2022-09-03T22:44:26.808Z,15.96
2022-09-03T22:47:26.544Z,15.94
2022-09-03T22:49:59.149Z,15.97
2022-09-03T22:52:39.583Z,15.90
2022-09-03T22:55:14.829Z,15.84
2022-09-03T22:58:03.429Z,15.77
2022-09-03T23:00:34.350Z,15.71
2022-09-03T23:03:08.581Z,15.64
2022-09-03T23:06:02.335Z,15.62
2022-09-03T23:08:51.923Z,15.61
2022-09-03T23:11:31.175Z,15.57
2022-09-03T23:14:36.736Z,15.58
2022-09-03T23:17:13.321Z,15.55
2022-09-03T23:19:45.127Z,15.55
2022-09-03T23:22:25.497Z,15.44
2022-09-03T23:25:01.803Z,15.39
2022-09-03T23:27:50.488Z,15.39
2022-09-03T23:30:17.377Z,15.32
2022-09-03T23:32:44.133Z,15.27
2022-09-03T23:35:18.157Z,15.20
2022-09-03T23:37:53.846Z,15.22
2022-09-03T23:40:38.726Z,15.22
2022-09-03T23:43:43.027Z,15.30
2022-09-03T23:46:24.768Z,15.28
2022-09-03T23:49:04.425Z,15.21
2022-09-03T23:51:38.820Z,15.15
2022-09-03T23:54:37.697Z,15.10
2022-09-03T23:57:17.822Z,15.06
